Imagination — C6FN2 — position and weather

sailwx.info

Track history (hours):
 
Tides and Currents Weather Stations Pressure Air Temp Water Temp Dewpoint Dewpoint Depression Visibility Wind Speed Wind Dir Waves Ship Positions

Imagination

Operator: Carnival Cruise Lines

Last reported at 2018-Dec-12 13:30 UTC. Time now 2018-Dec-12 13:51 UTC.
Position N 31°40' W 118°12'.

Type: Ship. MMSI: 309933000.

Date/timePositionNaut miles runAvg speedWind from/ knotsBaromVisibWave heightAir tempDewpointWater temp
2018-Dec-12 13:30N 31°40' W 118°12'3 6.7
2018-Dec-12 13:00N 31°37' W 118°12'4 6.8
2018-Dec-12 12:27N 31°34' W 118°11'7 7.6
2018-Dec-12 11:31N 31°34' W 118°02'0 2.2
2018-Dec-12 11:30N 31°34' W 118°02'10 7.6
2018-Dec-12 10:10N 31°37' W 117°51'2 8.0
2018-Dec-12 09:54N 31°38' W 117°49'6 7.0
2018-Dec-12 09:00N 31°36' W 117°42'1616.5 040 / 71018.210.8 16.010.818.0
2018-Dec-12 08:00N 31°42' W 117°24'21 1.0 350 / 31016.2 16.010.8
2018-Dec-11 11:32N 31°59' W 117°09'0 7.7
2018-Dec-11 11:31N 31°59' W 117°09'4 8.4
2018-Dec-11 11:00N 31°60' W 117°14'4 8.0
2018-Dec-11 10:30N 32°02' W 117°18'4 8.3
2018-Dec-11 10:00N 32°05' W 117°21'4 8.4
2018-Dec-11 09:30N 32°08' W 117°25'4 8.2
2018-Dec-11 09:00N 32°10' W 117°29'6365.9
2018-Dec-11 09:00N 32°06' W 117°24'1020.9 290 / 51015.210.8 15.011.617.0
2018-Dec-11 08:30N 32°13' W 117°32'5 9.1
2018-Dec-11 08:00N 32°16' W 117°36'2119.1
2018-Dec-11 08:00N 32°18' W 117°36'4 7.9 270 / 91017.2 16.012.7
2018-Dec-11 07:30N 32°19' W 117°40'4 8.7
2018-Dec-11 07:00N 32°23' W 117°42'4 8.8
2018-Dec-11 06:30N 32°28' W 117°44'510.1
2018-Dec-11 06:00N 32°32' W 117°46'4 8.9
2018-Dec-11 05:30N 32°37' W 117°48'5 9.1
2018-Dec-11 05:00N 32°41' W 117°48'5 9.2
2018-Dec-11 04:30N 32°46' W 117°49'4 8.9
2018-Dec-11 04:00N 32°50' W 117°50'4 8.5
2018-Dec-11 03:30N 32°54' W 117°51'4 8.7
2018-Dec-11 03:00N 32°58' W 117°54'4 8.9
2018-Dec-11 02:30N 33°01' W 117°57'5 9.1
2018-Dec-11 02:00N 33°05' W 118°01'611.0
2018-Dec-11 01:30N 33°09' W 118°05'815.4
2018-Dec-11 01:00N 33°14' W 118°11'714.9
2018-Dec-11 00:30N 33°20' W 118°17'2 3.7
2018-Dec-11 00:00N 33°21' W 118°19'0 0.1
2018-Dec-10 23:29N 33°21' W 118°19'0 0.1
2018-Dec-10 22:59N 33°21' W 118°19'0 0.0
2018-Dec-10 22:29N 33°21' W 118°19'0 0.0
2018-Dec-10 21:56N 33°21' W 118°19'0 0.0
2018-Dec-10 21:28N 33°21' W 118°19'0 0.0
2018-Dec-10 20:58N 33°21' W 118°19'0 0.0
2018-Dec-10 20:28N 33°21' W 118°19'0 0.0
2018-Dec-10 19:58N 33°21' W 118°19'0 0.0
2018-Dec-10 19:28N 33°21' W 118°19'0 0.0
2018-Dec-10 19:00N 33°21' W 118°19'0 0.0
2018-Dec-10 18:30N 33°21' W 118°19'0 0.0
2018-Dec-10 18:00N 33°21' W 118°19'0 0.0
2018-Dec-10 17:24N 33°21' W 118°19'0 0.0
2018-Dec-10 16:57N 33°21' W 118°19'0 0.0
2018-Dec-10 16:29N 33°21' W 118°19'0 0.1
2018-Dec-10 15:59N 33°21' W 118°19'0 0.0
2018-Dec-10 15:29N 33°21' W 118°19'0 0.2
2018-Dec-10 15:00N 33°21' W 118°19'3 6.6
2018-Dec-10 14:30N 33°18' W 118°17'5 9.3
2018-Dec-10 14:00N 33°14' W 118°17'5 9.6
2018-Dec-10 13:30N 33°09' W 118°17'5 9.1
2018-Dec-10 13:00N 33°04' W 118°16'3 6.6
2018-Dec-10 12:30N 33°02' W 118°13'3 6.3
2018-Dec-10 12:00N 33°00' W 118°10'3 6.4
2018-Dec-10 11:30N 32°58' W 118°07'3 6.5
2018-Dec-10 11:00N 32°56' W 118°04'3 6.3
2018-Dec-10 10:30N 32°54' W 118°01'3 6.3
2018-Dec-10 10:00N 32°52' W 117°58'3 6.0
2018-Dec-10 09:30N 32°51' W 117°55'3 5.8
2018-Dec-10 09:00N 32°54' W 117°55'154.8
2018-Dec-10 09:00N 32°54' W 117°54'4 7.2 330 / 81021.210.8 17.011.917.0
2018-Dec-10 08:30N 32°57' W 117°56'3 6.3
2018-Dec-10 08:00N 33°00' W 117°57'3191.6
2018-Dec-10 08:00N 33°00' W 117°54'510.3 310 / 81021.2
2018-Dec-10 07:30N 33°03' W 117°59'3 6.4
2018-Dec-10 07:00N 33°06' W 118°00'3 6.4
2018-Dec-10 06:30N 33°09' W 118°01'3 6.4
2018-Dec-10 06:00N 33°12' W 118°03'4 7.1
2018-Dec-10 05:30N 33°15' W 118°04'5 9.7
2018-Dec-10 05:00N 33°20' W 118°06'5 9.8
2018-Dec-10 04:31N 33°24' W 118°08'5 9.8
2018-Dec-10 04:00N 33°29' W 118°10'9 9.3
2018-Dec-10 03:00N 33°38' W 118°13'5 9.0
2018-Dec-10 02:30N 33°43' W 118°11'2 4.8
2018-Dec-10 02:00N 33°45' W 118°11'0 0.0
2018-Dec-10 01:30N 33°45' W 118°11'0 0.0
2018-Dec-10 00:59N 33°45' W 118°11'0 0.0
2018-Dec-10 00:29N 33°45' W 118°11'0 0.0
2018-Dec-09 23:59N 33°45' W 118°11'0 0.0
2018-Dec-09 23:29N 33°45' W 118°11'0 0.0
2018-Dec-09 22:59N 33°45' W 118°11'0 0.0
2018-Dec-09 22:28N 33°45' W 118°11'0 0.0
2018-Dec-09 21:58N 33°45' W 118°11'0 0.0
2018-Dec-09 21:28N 33°45' W 118°11'0 0.0
2018-Dec-09 20:58N 33°45' W 118°11'0 0.0
2018-Dec-09 20:28N 33°45' W 118°11'0 0.0
2018-Dec-09 20:00N 33°45' W 118°11'0 0.0
2018-Dec-09 19:30N 33°45' W 118°11'0 0.0
2018-Dec-09 19:00N 33°45' W 118°11'0 0.0
2018-Dec-09 18:30N 33°45' W 118°11'0 0.0
2018-Dec-09 17:59N 33°45' W 118°11'0 0.0
2018-Dec-09 17:29N 33°45' W 118°11'0 0.0
2018-Dec-09 16:56N 33°45' W 118°11'0 0.0
2018-Dec-09 16:29N 33°45' W 118°11'0 0.0
2018-Dec-09 15:59N 33°45' W 118°11'0 0.0
2018-Dec-09 15:28N 33°45' W 118°11'0 0.0
2018-Dec-09 14:55N 33°45' W 118°11'0 0.0
2018-Dec-09 14:28N 33°45' W 118°11'0 0.0
2018-Dec-09 13:58N 33°45' W 118°11'0 0.4
2018-Dec-09 13:30N 33°45' W 118°11'3 6.0
2018-Dec-09 13:00N 33°42' W 118°11'510.3
2018-Dec-09 12:30N 33°37' W 118°10'510.3
2018-Dec-09 12:00N 33°32' W 118°08'5 9.3
2018-Dec-09 11:30N 33°28' W 118°06'510.4
2018-Dec-09 11:00N 33°23' W 118°04'510.2
2018-Dec-09 10:30N 33°18' W 118°02'510.8
2018-Dec-09 10:00N 33°13' W 118°00'510.3
2018-Dec-09 09:30N 33°08' W 117°57'612.4
2018-Dec-09 09:00N 33°02' W 117°54'815.9
2018-Dec-09 08:30N 32°55' W 117°51'815.7
2018-Dec-09 08:00N 32°47' W 117°48'8463.7
2018-Dec-09 08:00N 32°42' W 117°42'4 8.6 020 / 121023.2 17.011.9
2018-Dec-09 07:31N 32°40' W 117°46'815.8
2018-Dec-09 07:00N 32°32' W 117°43'815.6
2018-Dec-09 06:30N 32°25' W 117°40'815.9
2018-Dec-09 06:00N 32°19' W 117°34'816.2
2018-Dec-09 05:31N 32°13' W 117°27'816.1
2018-Dec-09 05:00N 32°08' W 117°20'1115.8
2018-Dec-09 04:19N 32°02' W 117°10'15 0.8
2018-Dec-08 10:19N 31°47' W 117°13'515.9
2018-Dec-08 10:00N 31°42' W 117°12'10 8.5 340 / 151020.210.8 16.014.418.0
2018-Dec-08 08:46N 31°44' W 117°24'2 6.4
2018-Dec-08 08:30N 31°43' W 117°26'8 6.4
2018-Dec-08 07:20N 31°43' W 117°35'2 6.9
2018-Dec-08 07:00N 31°42' W 117°37'61028.4
2018-Dec-08 07:00N 31°42' W 117°30'1214.0 340 / 131020.2 16.012.6
2018-Dec-08 06:07N 31°41' W 117°44'3 6.7
2018-Dec-08 05:42N 31°39' W 117°47'1 6.6
2018-Dec-08 05:30N 31°39' W 117°48'3 6.6
2018-Dec-08 05:01N 31°36' W 117°51'5 6.7
2018-Dec-08 04:12N 31°33' W 117°56'1 7.1
2018-Dec-08 03:59N 31°32' W 117°57'3 7.1
2018-Dec-08 03:30N 31°30' W 118°00'4 7.0
2018-Dec-08 02:57N 31°27' W 118°04'32 3.3
2018-Dec-07 17:08N 31°54' W 117°43'1 6.6
2018-Dec-07 16:57N 31°55' W 117°43'3 6.7
2018-Dec-07 16:29N 31°58' W 117°44'4 7.6
2018-Dec-07 15:57N 32°02' W 117°44'4 8.8
2018-Dec-07 15:30N 32°06' W 117°45'4 8.6
2018-Dec-07 15:01N 32°10' W 117°45'4 8.5
2018-Dec-07 14:30N 32°15' W 117°46'4 8.6
2018-Dec-07 14:00N 32°19' W 117°46'4 8.5
2018-Dec-07 13:31N 32°23' W 117°47'4 8.3
2018-Dec-07 13:01N 32°27' W 117°47'4 7.5
2018-Dec-07 12:31N 32°31' W 117°48'4 7.5
2018-Dec-07 12:01N 32°35' W 117°48'4 7.2
2018-Dec-07 11:31N 32°38' W 117°49'4 7.1
2018-Dec-07 11:00N 32°42' W 117°50'4 7.1
2018-Dec-07 10:30N 32°45' W 117°52'4 7.1
2018-Dec-07 10:00N 32°48' W 117°53'8525.6
2018-Dec-07 10:00N 32°42' W 117°48'1122.8 120 / 121013.210.8 15.0 9.718.0
2018-Dec-07 09:31N 32°52' W 117°54'4 7.1
2018-Dec-07 09:00N 32°55' W 117°56'4 7.5
2018-Dec-07 08:30N 32°58' W 117°57'4 7.3
2018-Dec-07 08:00N 33°02' W 117°59'5305.1
2018-Dec-07 08:00N 33°00' W 117°54'715.4 100 / 251013.2 15.0 9.7
2018-Dec-07 07:30N 33°05' W 118°00'3 6.8
2018-Dec-07 07:00N 33°08' W 118°02'3 6.7
2018-Dec-07 06:30N 33°12' W 118°03'4 7.1
2018-Dec-07 06:00N 33°15' W 118°04'4 8.3
2018-Dec-07 05:30N 33°18' W 118°07'4 8.4
2018-Dec-07 05:00N 33°22' W 118°09'4 8.9
2018-Dec-07 04:31N 33°27' W 118°09'4 8.9
2018-Dec-07 04:01N 33°31' W 118°11'4 8.6
2018-Dec-07 03:31N 33°35' W 118°13'9 8.8
2018-Dec-07 02:30N 33°44' W 118°11'1 2.9
2018-Dec-07 02:00N 33°45' W 118°11'0 0.0
2018-Dec-07 01:30N 33°45' W 118°11'0 0.0
2018-Dec-07 00:56N 33°45' W 118°11'0 0.0
2018-Dec-07 00:20N 33°45' W 118°11'0 0.0
2018-Dec-06 23:59N 33°45' W 118°11'0 0.0
2018-Dec-06 23:29N 33°45' W 118°11'0 0.0
2018-Dec-06 22:58N 33°45' W 118°11'0 0.0
2018-Dec-06 22:28N 33°45' W 118°11'0 0.0
2018-Dec-06 21:58N 33°45' W 118°11'0 0.0
2018-Dec-06 21:28N 33°45' W 118°11'0 0.0
2018-Dec-06 20:58N 33°45' W 118°11'0 0.0
2018-Dec-06 20:30N 33°45' W 118°11'0 0.0
2018-Dec-06 20:00N 33°45' W 118°11'0 0.0
2018-Dec-06 19:24N 33°45' W 118°11'0 0.0
2018-Dec-06 18:57N 33°45' W 118°11'0 0.0
2018-Dec-06 18:23N 33°45' W 118°11'0 0.0
2018-Dec-06 17:59N 33°45' W 118°11'0 0.0
2018-Dec-06 17:26N 33°45' W 118°11'0 0.0
2018-Dec-06 16:59N 33°45' W 118°11'0 0.0
2018-Dec-06 16:29N 33°45' W 118°11'0 0.0
2018-Dec-06 15:58N 33°45' W 118°11'0 0.0
2018-Dec-06 15:28N 33°45' W 118°11'0 0.0
2018-Dec-06 14:58N 33°45' W 118°11'0 0.0
2018-Dec-06 14:28N 33°45' W 118°11'0 0.0
2018-Dec-06 13:58N 33°45' W 118°11'0 0.6
2018-Dec-06 13:30N 33°45' W 118°11'2 4.1
2018-Dec-06 13:00N 33°43' W 118°11'4 9.0
2018-Dec-06 12:30N 33°38' W 118°10'4 7.3
2018-Dec-06 12:00N 33°35' W 118°09'3 6.7
2018-Dec-06 11:30N 33°32' W 118°08'3 6.6
2018-Dec-06 11:00N 33°28' W 118°07'3 6.5
2018-Dec-06 10:31N 33°25' W 118°05'3 6.7
2018-Dec-06 10:00N 33°22' W 118°04'3 7.0
2018-Dec-06 09:31N 33°19' W 118°02'3 6.9
2018-Dec-06 09:01N 33°16' W 118°00'3 6.7
2018-Dec-06 08:31N 33°13' W 117°58'3 6.7
2018-Dec-06 08:00N 33°10' W 117°57'3 6.7
2018-Dec-06 07:31N 33°07' W 117°55'3 6.8
2018-Dec-06 07:00N 33°04' W 117°53'6427.2
2018-Dec-06 07:00N 33°00' W 117°48'4 9.1 140 / 201011.2 16.0 8.8
2018-Dec-06 06:30N 33°01' W 117°53'3 6.7
2018-Dec-06 06:01N 32°57' W 117°52'3 6.9
2018-Dec-06 05:31N 32°54' W 117°50'3 6.7
2018-Dec-06 05:01N 32°51' W 117°49'3 6.8
2018-Dec-06 04:30N 32°48' W 117°49'3 6.9
2018-Dec-06 04:01N 32°44' W 117°48'4 6.9
2018-Dec-06 03:30N 32°41' W 117°47'7 7.0
2018-Dec-06 02:30N 32°34' W 117°46'4 7.6
2018-Dec-06 02:00N 32°30' W 117°46'5 9.3
2018-Dec-06 01:30N 32°25' W 117°46'4 7.1
2018-Dec-06 01:01N 32°22' W 117°45'4 7.1
2018-Dec-06 00:30N 32°18' W 117°45'4 7.0
2018-Dec-06 00:00N 32°15' W 117°45'9654.9
2018-Dec-06 00:00N 32°06' W 117°42'611.3 170 / 131011.2 2.2 15.013.318.0
2018-Dec-05 23:30N 32°11' W 117°44'36 2.7
2018-Dec-05 10:00N 31°36' W 117°36'16 5.5 130 / 111018.210.8 16.0 8.818.0
2018-Dec-05 07:00N 31°42' W 117°18'20 1.1 130 / 31018.2 16.0 8.8
2018-Dec-04 12:33N 31°57' W 117°02'3 8.8
2018-Dec-04 12:10N 31°58' W 117°06'5 8.7
2018-Dec-04 11:33N 31°59' W 117°12'1 8.4
2018-Dec-04 11:29N 31°60' W 117°12'5 8.6
2018-Dec-04 10:56N 32°02' W 117°17'4 9.2
2018-Dec-04 10:30N 32°04' W 117°21'3 5.4
2018-Dec-04 10:00N 32°06' W 117°18'6171.7 150 / 51018.210.8 15.0 9.718.0
2018-Dec-04 09:57N 32°08' W 117°25'4 9.0
2018-Dec-04 09:30N 32°10' W 117°28'5 9.1
2018-Dec-04 09:00N 32°14' W 117°33'4 8.9
2018-Dec-04 08:31N 32°17' W 117°36'5 9.2
2018-Dec-04 08:00N 32°20' W 117°40'510.1
2018-Dec-04 07:30N 32°24' W 117°43'510.9
2018-Dec-04 07:00N 32°30' W 117°45'6428.6
2018-Dec-04 07:00N 32°24' W 117°42'1122.5 040 / 41018.2 15.0 9.7
2018-Dec-04 06:30N 32°34' W 117°47'5 9.5
2018-Dec-04 06:00N 32°39' W 117°48'5 9.5
2018-Dec-04 05:30N 32°43' W 117°49'5 9.5
2018-Dec-04 05:00N 32°48' W 117°49'5 9.4
2018-Dec-04 04:30N 32°53' W 117°50'5 9.4
2018-Dec-04 04:01N 32°57' W 117°53'5 9.4
2018-Dec-04 03:31N 33°01' W 117°56'5 9.3
2018-Dec-04 03:01N 33°04' W 117°60'5 9.3
2018-Dec-04 02:31N 33°08' W 118°03'5 9.0
2018-Dec-04 02:00N 33°11' W 118°07'5 9.2
2018-Dec-04 01:30N 33°14' W 118°11'4 8.9
2018-Dec-04 01:00N 33°18' W 118°14'4 8.7
2018-Dec-04 00:31N 33°21' W 118°18'1 1.6
2018-Dec-03 23:59N 33°21' W 118°19'0 0.0
2018-Dec-03 23:30N 33°21' W 118°19'0 0.0
2018-Dec-03 23:00N 33°21' W 118°19'0 0.0
2018-Dec-03 22:31N 33°21' W 118°19'0 0.0
2018-Dec-03 22:00N 33°21' W 118°19'0 0.0
2018-Dec-03 21:30N 33°21' W 118°19'0 0.0
2018-Dec-03 21:00N 33°21' W 118°19'0 0.0
2018-Dec-03 20:30N 33°21' W 118°19'0 0.0
2018-Dec-03 20:00N 33°21' W 118°19'0 0.0
2018-Dec-03 19:31N 33°21' W 118°19'0 0.0
2018-Dec-03 19:00N 33°21' W 118°19'0 0.0
2018-Dec-03 18:30N 33°21' W 118°19'0 0.0
2018-Dec-03 18:01N 33°21' W 118°19'0 0.0
2018-Dec-03 17:31N 33°21' W 118°19'0 0.0
2018-Dec-03 17:00N 33°21' W 118°19'0 0.0
2018-Dec-03 16:31N 33°21' W 118°19'0 0.0
2018-Dec-03 16:00N 33°21' W 118°19'0 0.1
2018-Dec-03 15:30N 33°21' W 118°19'0 0.4
2018-Dec-03 15:00N 33°21' W 118°19'4 7.1
2018-Dec-03 14:31N 33°18' W 118°17'4 8.9
2018-Dec-03 14:01N 33°13' W 118°17'5 9.9
2018-Dec-03 13:30N 33°08' W 118°17'5 9.1
2018-Dec-03 13:00N 33°04' W 118°15'5 9.1
2018-Dec-03 12:30N 33°01' W 118°11'4 7.6
2018-Dec-03 12:00N 32°58' W 118°08'4 7.2
2018-Dec-03 11:31N 32°56' W 118°05'3 6.6
2018-Dec-03 11:00N 32°54' W 118°02'3 6.6
2018-Dec-03 10:31N 32°51' W 117°59'3 5.2
2018-Dec-03 10:00N 32°50' W 117°56'3178.0
2018-Dec-03 10:00N 32°48' W 117°54'510.8 050 / 41015.210.8 15.0 7.617.0
2018-Dec-03 09:30N 32°53' W 117°54'3 6.5
2018-Dec-03 09:01N 32°56' W 117°56'3 6.4
2018-Dec-03 08:31N 32°59' W 117°57'3 6.5
2018-Dec-03 08:01N 33°02' W 117°58'3 6.4
2018-Dec-03 07:30N 33°05' W 117°60'3 6.3
2018-Dec-03 07:00N 33°08' W 118°01'2153.8
2018-Dec-03 07:00N 33°06' W 118°00'611.7 330 / 151018.2 15.0 7.6
2018-Dec-03 06:30N 33°11' W 118°02'3 6.9
2018-Dec-03 06:00N 33°15' W 118°04'4 8.9
2018-Dec-03 05:30N 33°19' W 118°06'4 9.0
2018-Dec-03 05:00N 33°23' W 118°08'5 9.0
2018-Dec-03 04:31N 33°27' W 118°10'4 8.9
2018-Dec-03 04:00N 33°31' W 118°12'4 8.9
2018-Dec-03 03:30N 33°36' W 118°13'4 8.5
2018-Dec-03 03:00N 33°40' W 118°12'4 8.0
2018-Dec-03 02:30N 33°44' W 118°11'1 2.8
2018-Dec-03 01:59N 33°45' W 118°11'0 0.0
2018-Dec-03 01:28N 33°45' W 118°11'0 0.0
2018-Dec-03 00:58N 33°45' W 118°11'0 0.0
2018-Dec-03 00:28N 33°45' W 118°11'0 0.0
2018-Dec-02 23:58N 33°45' W 118°11'0 0.0
2018-Dec-02 23:27N 33°45' W 118°11'0 0.0
2018-Dec-02 23:00N 33°45' W 118°11'0 0.0
2018-Dec-02 22:30N 33°45' W 118°11'0 0.0
2018-Dec-02 22:00N 33°45' W 118°11'0 0.0
2018-Dec-02 21:30N 33°45' W 118°11'0 0.0
2018-Dec-02 20:56N 33°45' W 118°11'0 0.0
2018-Dec-02 20:29N 33°45' W 118°11'0 0.0
2018-Dec-02 19:59N 33°45' W 118°11'0 0.0
2018-Dec-02 19:29N 33°45' W 118°11'0 0.0
2018-Dec-02 18:59N 33°45' W 118°11'0 0.0
2018-Dec-02 18:25N 33°45' W 118°11'0 0.0
2018-Dec-02 17:58N 33°45' W 118°11'0 0.0
2018-Dec-02 17:28N 33°45' W 118°11'0 0.0
2018-Dec-02 16:58N 33°45' W 118°11'0 0.0
2018-Dec-02 16:30N 33°45' W 118°11'0 0.0
2018-Dec-02 16:00N 33°45' W 118°11'0 0.0
2018-Dec-02 15:30N 33°45' W 118°11'0 0.0
2018-Dec-02 15:00N 33°45' W 118°11'0 0.0
2018-Dec-02 14:30N 33°45' W 118°11'0 0.0
2018-Dec-02 14:00N 33°45' W 118°11'  
Track history (hours):
 
Tides and Currents Weather Stations Pressure Air Temp Water Temp Dewpoint Dewpoint Depression Visibility Wind Speed Wind Dir Waves Ship Positions

Imagination

Operator: Carnival Cruise Lines

Last reported at 2018-Dec-12 13:30 UTC. Time now 2018-Dec-12 13:51 UTC.
Position N 31°40' W 118°12'.

Type: Ship. MMSI: 309933000.

Date/timePositionNaut miles runAvg speedWind from/ knotsBaromVisibWave heightAir tempDewpointWater temp
2018-Dec-12 13:30N 31°40' W 118°12'3 6.7
2018-Dec-12 13:00N 31°37' W 118°12'4 6.8
2018-Dec-12 12:27N 31°34' W 118°11'7 7.6
2018-Dec-12 11:31N 31°34' W 118°02'0 2.2
2018-Dec-12 11:30N 31°34' W 118°02'10 7.6
2018-Dec-12 10:10N 31°37' W 117°51'2 8.0
2018-Dec-12 09:54N 31°38' W 117°49'6 7.0
2018-Dec-12 09:00N 31°36' W 117°42'1616.5 040 / 71018.210.8 16.010.818.0
2018-Dec-12 08:00N 31°42' W 117°24'21 1.0 350 / 31016.2 16.010.8
2018-Dec-11 11:32N 31°59' W 117°09'0 7.7
2018-Dec-11 11:31N 31°59' W 117°09'4 8.4
2018-Dec-11 11:00N 31°60' W 117°14'4 8.0
2018-Dec-11 10:30N 32°02' W 117°18'4 8.3
2018-Dec-11 10:00N 32°05' W 117°21'4 8.4
2018-Dec-11 09:30N 32°08' W 117°25'4 8.2
2018-Dec-11 09:00N 32°10' W 117°29'6365.9
2018-Dec-11 09:00N 32°06' W 117°24'1020.9 290 / 51015.210.8 15.011.617.0
2018-Dec-11 08:30N 32°13' W 117°32'5 9.1
2018-Dec-11 08:00N 32°16' W 117°36'2119.1
2018-Dec-11 08:00N 32°18' W 117°36'4 7.9 270 / 91017.2 16.012.7
2018-Dec-11 07:30N 32°19' W 117°40'4 8.7
2018-Dec-11 07:00N 32°23' W 117°42'4 8.8
2018-Dec-11 06:30N 32°28' W 117°44'510.1
2018-Dec-11 06:00N 32°32' W 117°46'4 8.9
2018-Dec-11 05:30N 32°37' W 117°48'5 9.1
2018-Dec-11 05:00N 32°41' W 117°48'5 9.2
2018-Dec-11 04:30N 32°46' W 117°49'4 8.9
2018-Dec-11 04:00N 32°50' W 117°50'4 8.5
2018-Dec-11 03:30N 32°54' W 117°51'4 8.7
2018-Dec-11 03:00N 32°58' W 117°54'4 8.9
2018-Dec-11 02:30N 33°01' W 117°57'5 9.1
2018-Dec-11 02:00N 33°05' W 118°01'611.0
2018-Dec-11 01:30N 33°09' W 118°05'815.4
2018-Dec-11 01:00N 33°14' W 118°11'714.9
2018-Dec-11 00:30N 33°20' W 118°17'2 3.7
2018-Dec-11 00:00N 33°21' W 118°19'0 0.1
2018-Dec-10 23:29N 33°21' W 118°19'0 0.1
2018-Dec-10 22:59N 33°21' W 118°19'0 0.0
2018-Dec-10 22:29N 33°21' W 118°19'0 0.0
2018-Dec-10 21:56N 33°21' W 118°19'0 0.0
2018-Dec-10 21:28N 33°21' W 118°19'0 0.0
2018-Dec-10 20:58N 33°21' W 118°19'0 0.0
2018-Dec-10 20:28N 33°21' W 118°19'0 0.0
2018-Dec-10 19:58N 33°21' W 118°19'0 0.0
2018-Dec-10 19:28N 33°21' W 118°19'0 0.0
2018-Dec-10 19:00N 33°21' W 118°19'0 0.0
2018-Dec-10 18:30N 33°21' W 118°19'0 0.0
2018-Dec-10 18:00N 33°21' W 118°19'0 0.0
2018-Dec-10 17:24N 33°21' W 118°19'0 0.0
2018-Dec-10 16:57N 33°21' W 118°19'0 0.0
2018-Dec-10 16:29N 33°21' W 118°19'0 0.1
2018-Dec-10 15:59N 33°21' W 118°19'0 0.0
2018-Dec-10 15:29N 33°21' W 118°19'0 0.2
2018-Dec-10 15:00N 33°21' W 118°19'3 6.6
2018-Dec-10 14:30N 33°18' W 118°17'5 9.3
2018-Dec-10 14:00N 33°14' W 118°17'5 9.6
2018-Dec-10 13:30N 33°09' W 118°17'5 9.1
2018-Dec-10 13:00N 33°04' W 118°16'3 6.6
2018-Dec-10 12:30N 33°02' W 118°13'3 6.3
2018-Dec-10 12:00N 33°00' W 118°10'3 6.4
2018-Dec-10 11:30N 32°58' W 118°07'3 6.5
2018-Dec-10 11:00N 32°56' W 118°04'3 6.3
2018-Dec-10 10:30N 32°54' W 118°01'3 6.3
2018-Dec-10 10:00N 32°52' W 117°58'3 6.0
2018-Dec-10 09:30N 32°51' W 117°55'3 5.8
2018-Dec-10 09:00N 32°54' W 117°55'154.8
2018-Dec-10 09:00N 32°54' W 117°54'4 7.2 330 / 81021.210.8 17.011.917.0
2018-Dec-10 08:30N 32°57' W 117°56'3 6.3
2018-Dec-10 08:00N 33°00' W 117°57'3191.6
2018-Dec-10 08:00N 33°00' W 117°54'510.3 310 / 81021.2
2018-Dec-10 07:30N 33°03' W 117°59'3 6.4
2018-Dec-10 07:00N 33°06' W 118°00'3 6.4
2018-Dec-10 06:30N 33°09' W 118°01'3 6.4
2018-Dec-10 06:00N 33°12' W 118°03'4 7.1
2018-Dec-10 05:30N 33°15' W 118°04'5 9.7
2018-Dec-10 05:00N 33°20' W 118°06'5 9.8
2018-Dec-10 04:31N 33°24' W 118°08'5 9.8
2018-Dec-10 04:00N 33°29' W 118°10'9 9.3
2018-Dec-10 03:00N 33°38' W 118°13'5 9.0
2018-Dec-10 02:30N 33°43' W 118°11'2 4.8
2018-Dec-10 02:00N 33°45' W 118°11'0 0.0
2018-Dec-10 01:30N 33°45' W 118°11'0 0.0
2018-Dec-10 00:59N 33°45' W 118°11'0 0.0
2018-Dec-10 00:29N 33°45' W 118°11'0 0.0
2018-Dec-09 23:59N 33°45' W 118°11'0 0.0
2018-Dec-09 23:29N 33°45' W 118°11'0 0.0
2018-Dec-09 22:59N 33°45' W 118°11'0 0.0
2018-Dec-09 22:28N 33°45' W 118°11'0 0.0
2018-Dec-09 21:58N 33°45' W 118°11'0 0.0
2018-Dec-09 21:28N 33°45' W 118°11'0 0.0
2018-Dec-09 20:58N 33°45' W 118°11'0 0.0
2018-Dec-09 20:28N 33°45' W 118°11'0 0.0
2018-Dec-09 20:00N 33°45' W 118°11'0 0.0
2018-Dec-09 19:30N 33°45' W 118°11'0 0.0
2018-Dec-09 19:00N 33°45' W 118°11'0 0.0
2018-Dec-09 18:30N 33°45' W 118°11'0 0.0
2018-Dec-09 17:59N 33°45' W 118°11'0 0.0
2018-Dec-09 17:29N 33°45' W 118°11'0 0.0
2018-Dec-09 16:56N 33°45' W 118°11'0 0.0
2018-Dec-09 16:29N 33°45' W 118°11'0 0.0
2018-Dec-09 15:59N 33°45' W 118°11'0 0.0
2018-Dec-09 15:28N 33°45' W 118°11'0 0.0
2018-Dec-09 14:55N 33°45' W 118°11'0 0.0
2018-Dec-09 14:28N 33°45' W 118°11'0 0.0
2018-Dec-09 13:58N 33°45' W 118°11'0 0.4
2018-Dec-09 13:30N 33°45' W 118°11'3 6.0
2018-Dec-09 13:00N 33°42' W 118°11'510.3
2018-Dec-09 12:30N 33°37' W 118°10'510.3
2018-Dec-09 12:00N 33°32' W 118°08'5 9.3
2018-Dec-09 11:30N 33°28' W 118°06'510.4
2018-Dec-09 11:00N 33°23' W 118°04'510.2
2018-Dec-09 10:30N 33°18' W 118°02'510.8
2018-Dec-09 10:00N 33°13' W 118°00'510.3
2018-Dec-09 09:30N 33°08' W 117°57'612.4
2018-Dec-09 09:00N 33°02' W 117°54'815.9
2018-Dec-09 08:30N 32°55' W 117°51'815.7
2018-Dec-09 08:00N 32°47' W 117°48'8463.7
2018-Dec-09 08:00N 32°42' W 117°42'4 8.6 020 / 121023.2 17.011.9
2018-Dec-09 07:31N 32°40' W 117°46'815.8
2018-Dec-09 07:00N 32°32' W 117°43'815.6
2018-Dec-09 06:30N 32°25' W 117°40'815.9
2018-Dec-09 06:00N 32°19' W 117°34'816.2
2018-Dec-09 05:31N 32°13' W 117°27'816.1
2018-Dec-09 05:00N 32°08' W 117°20'1115.8
2018-Dec-09 04:19N 32°02' W 117°10'15 0.8
2018-Dec-08 10:19N 31°47' W 117°13'515.9
2018-Dec-08 10:00N 31°42' W 117°12'10 8.5 340 / 151020.210.8 16.014.418.0
2018-Dec-08 08:46N 31°44' W 117°24'2 6.4
2018-Dec-08 08:30N 31°43' W 117°26'8 6.4
2018-Dec-08 07:20N 31°43' W 117°35'2 6.9
2018-Dec-08 07:00N 31°42' W 117°37'61028.4
2018-Dec-08 07:00N 31°42' W 117°30'1214.0 340 / 131020.2 16.012.6
2018-Dec-08 06:07N 31°41' W 117°44'3 6.7
2018-Dec-08 05:42N 31°39' W 117°47'1 6.6
2018-Dec-08 05:30N 31°39' W 117°48'3 6.6
2018-Dec-08 05:01N 31°36' W 117°51'5 6.7
2018-Dec-08 04:12N 31°33' W 117°56'1 7.1
2018-Dec-08 03:59N 31°32' W 117°57'3 7.1
2018-Dec-08 03:30N 31°30' W 118°00'4 7.0
2018-Dec-08 02:57N 31°27' W 118°04'32 3.3
2018-Dec-07 17:08N 31°54' W 117°43'1 6.6
2018-Dec-07 16:57N 31°55' W 117°43'3 6.7
2018-Dec-07 16:29N 31°58' W 117°44'4 7.6
2018-Dec-07 15:57N 32°02' W 117°44'4 8.8
2018-Dec-07 15:30N 32°06' W 117°45'4 8.6
2018-Dec-07 15:01N 32°10' W 117°45'4 8.5
2018-Dec-07 14:30N 32°15' W 117°46'4 8.6
2018-Dec-07 14:00N 32°19' W 117°46'4 8.5
2018-Dec-07 13:31N 32°23' W 117°47'4 8.3
2018-Dec-07 13:01N 32°27' W 117°47'4 7.5
2018-Dec-07 12:31N 32°31' W 117°48'4 7.5
2018-Dec-07 12:01N 32°35' W 117°48'4 7.2
2018-Dec-07 11:31N 32°38' W 117°49'4 7.1
2018-Dec-07 11:00N 32°42' W 117°50'4 7.1
2018-Dec-07 10:30N 32°45' W 117°52'4 7.1
2018-Dec-07 10:00N 32°48' W 117°53'8525.6
2018-Dec-07 10:00N 32°42' W 117°48'1122.8 120 / 121013.210.8 15.0 9.718.0
2018-Dec-07 09:31N 32°52' W 117°54'4 7.1
2018-Dec-07 09:00N 32°55' W 117°56'4 7.5
2018-Dec-07 08:30N 32°58' W 117°57'4 7.3
2018-Dec-07 08:00N 33°02' W 117°59'5305.1
2018-Dec-07 08:00N 33°00' W 117°54'715.4 100 / 251013.2 15.0 9.7
2018-Dec-07 07:30N 33°05' W 118°00'3 6.8
2018-Dec-07 07:00N 33°08' W 118°02'3 6.7
2018-Dec-07 06:30N 33°12' W 118°03'4 7.1
2018-Dec-07 06:00N 33°15' W 118°04'4 8.3
2018-Dec-07 05:30N 33°18' W 118°07'4 8.4
2018-Dec-07 05:00N 33°22' W 118°09'4 8.9
2018-Dec-07 04:31N 33°27' W 118°09'4 8.9
2018-Dec-07 04:01N 33°31' W 118°11'4 8.6
2018-Dec-07 03:31N 33°35' W 118°13'9 8.8
2018-Dec-07 02:30N 33°44' W 118°11'1 2.9
2018-Dec-07 02:00N 33°45' W 118°11'0 0.0
2018-Dec-07 01:30N 33°45' W 118°11'0 0.0
2018-Dec-07 00:56N 33°45' W 118°11'0 0.0
2018-Dec-07 00:20N 33°45' W 118°11'0 0.0
2018-Dec-06 23:59N 33°45' W 118°11'0 0.0
2018-Dec-06 23:29N 33°45' W 118°11'0 0.0
2018-Dec-06 22:58N 33°45' W 118°11'0 0.0
2018-Dec-06 22:28N 33°45' W 118°11'0 0.0
2018-Dec-06 21:58N 33°45' W 118°11'0 0.0
2018-Dec-06 21:28N 33°45' W 118°11'0 0.0
2018-Dec-06 20:58N 33°45' W 118°11'0 0.0
2018-Dec-06 20:30N 33°45' W 118°11'0 0.0
2018-Dec-06 20:00N 33°45' W 118°11'0 0.0
2018-Dec-06 19:24N 33°45' W 118°11'0 0.0
2018-Dec-06 18:57N 33°45' W 118°11'0 0.0
2018-Dec-06 18:23N 33°45' W 118°11'0 0.0
2018-Dec-06 17:59N 33°45' W 118°11'0 0.0
2018-Dec-06 17:26N 33°45' W 118°11'0 0.0
2018-Dec-06 16:59N 33°45' W 118°11'0 0.0
2018-Dec-06 16:29N 33°45' W 118°11'0 0.0
2018-Dec-06 15:58N 33°45' W 118°11'0 0.0
2018-Dec-06 15:28N 33°45' W 118°11'0 0.0
2018-Dec-06 14:58N 33°45' W 118°11'0 0.0
2018-Dec-06 14:28N 33°45' W 118°11'0 0.0
2018-Dec-06 13:58N 33°45' W 118°11'0 0.6
2018-Dec-06 13:30N 33°45' W 118°11'2 4.1
2018-Dec-06 13:00N 33°43' W 118°11'4 9.0
2018-Dec-06 12:30N 33°38' W 118°10'4 7.3
2018-Dec-06 12:00N 33°35' W 118°09'3 6.7
2018-Dec-06 11:30N 33°32' W 118°08'3 6.6
2018-Dec-06 11:00N 33°28' W 118°07'3 6.5
2018-Dec-06 10:31N 33°25' W 118°05'3 6.7
2018-Dec-06 10:00N 33°22' W 118°04'3 7.0
2018-Dec-06 09:31N 33°19' W 118°02'3 6.9
2018-Dec-06 09:01N 33°16' W 118°00'3 6.7
2018-Dec-06 08:31N 33°13' W 117°58'3 6.7
2018-Dec-06 08:00N 33°10' W 117°57'3 6.7
2018-Dec-06 07:31N 33°07' W 117°55'3 6.8
2018-Dec-06 07:00N 33°04' W 117°53'6427.2
2018-Dec-06 07:00N 33°00' W 117°48'4 9.1 140 / 201011.2 16.0 8.8
2018-Dec-06 06:30N 33°01' W 117°53'3 6.7
2018-Dec-06 06:01N 32°57' W 117°52'3 6.9
2018-Dec-06 05:31N 32°54' W 117°50'3 6.7
2018-Dec-06 05:01N 32°51' W 117°49'3 6.8
2018-Dec-06 04:30N 32°48' W 117°49'3 6.9
2018-Dec-06 04:01N 32°44' W 117°48'4 6.9
2018-Dec-06 03:30N 32°41' W 117°47'7 7.0
2018-Dec-06 02:30N 32°34' W 117°46'4 7.6
2018-Dec-06 02:00N 32°30' W 117°46'5 9.3
2018-Dec-06 01:30N 32°25' W 117°46'4 7.1
2018-Dec-06 01:01N 32°22' W 117°45'4 7.1
2018-Dec-06 00:30N 32°18' W 117°45'4 7.0
2018-Dec-06 00:00N 32°15' W 117°45'9654.9
2018-Dec-06 00:00N 32°06' W 117°42'611.3 170 / 131011.2 2.2 15.013.318.0
2018-Dec-05 23:30N 32°11' W 117°44'36 2.7
2018-Dec-05 10:00N 31°36' W 117°36'16 5.5 130 / 111018.210.8 16.0 8.818.0
2018-Dec-05 07:00N 31°42' W 117°18'20 1.1 130 / 31018.2 16.0 8.8
2018-Dec-04 12:33N 31°57' W 117°02'3 8.8
2018-Dec-04 12:10N 31°58' W 117°06'5 8.7
2018-Dec-04 11:33N 31°59' W 117°12'1 8.4
2018-Dec-04 11:29N 31°60' W 117°12'5 8.6
2018-Dec-04 10:56N 32°02' W 117°17'4 9.2
2018-Dec-04 10:30N 32°04' W 117°21'3 5.4
2018-Dec-04 10:00N 32°06' W 117°18'6171.7 150 / 51018.210.8 15.0 9.718.0
2018-Dec-04 09:57N 32°08' W 117°25'4 9.0
2018-Dec-04 09:30N 32°10' W 117°28'5 9.1
2018-Dec-04 09:00N 32°14' W 117°33'4 8.9
2018-Dec-04 08:31N 32°17' W 117°36'5 9.2
2018-Dec-04 08:00N 32°20' W 117°40'510.1
2018-Dec-04 07:30N 32°24' W 117°43'510.9
2018-Dec-04 07:00N 32°30' W 117°45'6428.6
2018-Dec-04 07:00N 32°24' W 117°42'1122.5 040 / 41018.2 15.0 9.7
2018-Dec-04 06:30N 32°34' W 117°47'5 9.5
2018-Dec-04 06:00N 32°39' W 117°48'5 9.5
2018-Dec-04 05:30N 32°43' W 117°49'5 9.5
2018-Dec-04 05:00N 32°48' W 117°49'5 9.4
2018-Dec-04 04:30N 32°53' W 117°50'5 9.4
2018-Dec-04 04:01N 32°57' W 117°53'5 9.4
2018-Dec-04 03:31N 33°01' W 117°56'5 9.3
2018-Dec-04 03:01N 33°04' W 117°60'5 9.3
2018-Dec-04 02:31N 33°08' W 118°03'5 9.0
2018-Dec-04 02:00N 33°11' W 118°07'5 9.2
2018-Dec-04 01:30N 33°14' W 118°11'4 8.9
2018-Dec-04 01:00N 33°18' W 118°14'4 8.7
2018-Dec-04 00:31N 33°21' W 118°18'1 1.6
2018-Dec-03 23:59N 33°21' W 118°19'0 0.0
2018-Dec-03 23:30N 33°21' W 118°19'0 0.0
2018-Dec-03 23:00N 33°21' W 118°19'0 0.0
2018-Dec-03 22:31N 33°21' W 118°19'0 0.0
2018-Dec-03 22:00N 33°21' W 118°19'0 0.0
2018-Dec-03 21:30N 33°21' W 118°19'0 0.0
2018-Dec-03 21:00N 33°21' W 118°19'0 0.0
2018-Dec-03 20:30N 33°21' W 118°19'0 0.0
2018-Dec-03 20:00N 33°21' W 118°19'0 0.0
2018-Dec-03 19:31N 33°21' W 118°19'0 0.0
2018-Dec-03 19:00N 33°21' W 118°19'0 0.0
2018-Dec-03 18:30N 33°21' W 118°19'0 0.0
2018-Dec-03 18:01N 33°21' W 118°19'0 0.0
2018-Dec-03 17:31N 33°21' W 118°19'0 0.0
2018-Dec-03 17:00N 33°21' W 118°19'0 0.0
2018-Dec-03 16:31N 33°21' W 118°19'0 0.0
2018-Dec-03 16:00N 33°21' W 118°19'0 0.1
2018-Dec-03 15:30N 33°21' W 118°19'0 0.4
2018-Dec-03 15:00N 33°21' W 118°19'4 7.1
2018-Dec-03 14:31N 33°18' W 118°17'4 8.9
2018-Dec-03 14:01N 33°13' W 118°17'5 9.9
2018-Dec-03 13:30N 33°08' W 118°17'5 9.1
2018-Dec-03 13:00N 33°04' W 118°15'5 9.1
2018-Dec-03 12:30N 33°01' W 118°11'4 7.6
2018-Dec-03 12:00N 32°58' W 118°08'4 7.2
2018-Dec-03 11:31N 32°56' W 118°05'3 6.6
2018-Dec-03 11:00N 32°54' W 118°02'3 6.6
2018-Dec-03 10:31N 32°51' W 117°59'3 5.2
2018-Dec-03 10:00N 32°50' W 117°56'3178.0
2018-Dec-03 10:00N 32°48' W 117°54'510.8 050 / 41015.210.8 15.0 7.617.0
2018-Dec-03 09:30N 32°53' W 117°54'3 6.5
2018-Dec-03 09:01N 32°56' W 117°56'3 6.4
2018-Dec-03 08:31N 32°59' W 117°57'3 6.5
2018-Dec-03 08:01N 33°02' W 117°58'3 6.4
2018-Dec-03 07:30N 33°05' W 117°60'3 6.3
2018-Dec-03 07:00N 33°08' W 118°01'2153.8
2018-Dec-03 07:00N 33°06' W 118°00'611.7 330 / 151018.2 15.0 7.6
2018-Dec-03 06:30N 33°11' W 118°02'3 6.9
2018-Dec-03 06:00N 33°15' W 118°04'4 8.9
2018-Dec-03 05:30N 33°19' W 118°06'4 9.0
2018-Dec-03 05:00N 33°23' W 118°08'5 9.0
2018-Dec-03 04:31N 33°27' W 118°10'4 8.9
2018-Dec-03 04:00N 33°31' W 118°12'4 8.9
2018-Dec-03 03:30N 33°36' W 118°13'4 8.5
2018-Dec-03 03:00N 33°40' W 118°12'4 8.0
2018-Dec-03 02:30N 33°44' W 118°11'1 2.8
2018-Dec-03 01:59N 33°45' W 118°11'0 0.0
2018-Dec-03 01:28N 33°45' W 118°11'0 0.0
2018-Dec-03 00:58N 33°45' W 118°11'0 0.0
2018-Dec-03 00:28N 33°45' W 118°11'0 0.0
2018-Dec-02 23:58N 33°45' W 118°11'0 0.0
2018-Dec-02 23:27N 33°45' W 118°11'0 0.0
2018-Dec-02 23:00N 33°45' W 118°11'0 0.0
2018-Dec-02 22:30N 33°45' W 118°11'0 0.0
2018-Dec-02 22:00N 33°45' W 118°11'0 0.0
2018-Dec-02 21:30N 33°45' W 118°11'0 0.0
2018-Dec-02 20:56N 33°45' W 118°11'0 0.0
2018-Dec-02 20:29N 33°45' W 118°11'0 0.0
2018-Dec-02 19:59N 33°45' W 118°11'0 0.0
2018-Dec-02 19:29N 33°45' W 118°11'0 0.0
2018-Dec-02 18:59N 33°45' W 118°11'0 0.0
2018-Dec-02 18:25N 33°45' W 118°11'0 0.0
2018-Dec-02 17:58N 33°45' W 118°11'0 0.0
2018-Dec-02 17:28N 33°45' W 118°11'0 0.0
2018-Dec-02 16:58N 33°45' W 118°11'0 0.0
2018-Dec-02 16:30N 33°45' W 118°11'0 0.0
2018-Dec-02 16:00N 33°45' W 118°11'0 0.0
2018-Dec-02 15:30N 33°45' W 118°11'0 0.0
2018-Dec-02 15:00N 33°45' W 118°11'0 0.0
2018-Dec-02 14:30N 33°45' W 118°11'0 0.0
2018-Dec-02 14:00N 33°45' W 118°11'  

Dump ship's entire track history